Bookmark and Share
Track history (hours):
 

Oceanographic research ship Hudson (Canada)

Detailed information on ship capabilities available from University of Delaware's Ocean Information Center.

Last reported at 2014-Apr-09 01:07 UTC. Time now 2014-Apr-17 18:40 UTC.
Position N 44°41' W 063°37'.
Warning: this ship's position is 8 days out of date.

Length 85.03 m; beam 15.2 m; draft 6.28 m.

Type: SAR. MMSI: 316024000.

NotesDate/timePositionNaut miles runAvg speedWind from/ knotsBaromVisibWave heightAir tempDewpointWater temp
2014-Apr-09 01:07N 44°41' W 063°37'0 0.0
2014-Apr-09 00:25N 44°41' W 063°37'0 0.0
2014-Apr-08 23:25N 44°41' W 063°37'0 0.0
2014-Apr-08 22:25N 44°41' W 063°37'0 0.0
2014-Apr-08 21:28N 44°41' W 063°37'0 0.0
2014-Apr-08 20:28N 44°41' W 063°37'0 0.0
2014-Apr-08 19:28N 44°41' W 063°37'0 0.0
2014-Apr-08 18:25N 44°41' W 063°37'0 0.0
2014-Apr-08 17:33N 44°41' W 063°37'3 3.4
2014-Apr-08 16:33N 44°39' W 063°33'1110.6
2014-Apr-08 15:31N 44°28' W 063°28'  
2014-Apr-04 23:33N 44°33' W 063°32'8 8.3
2014-Apr-04 22:33N 44°41' W 063°36'2 1.8
2014-Apr-04 21:33N 44°42' W 063°39'0 0.0
2014-Apr-04 20:33N 44°42' W 063°39'0 0.1
2014-Apr-04 19:33N 44°41' W 063°38'0 0.1
2014-Apr-04 18:33N 44°42' W 063°39'0 0.1
2014-Apr-04 17:33N 44°42' W 063°39'0 0.1
2014-Apr-04 16:33N 44°42' W 063°39'0 0.1
2014-Apr-04 15:33N 44°41' W 063°39'0 0.1
2014-Apr-04 14:33N 44°41' W 063°38'0 0.2
2014-Apr-04 13:33N 44°41' W 063°38'0 0.3
2014-Apr-04 12:33N 44°42' W 063°38'0 0.1
2014-Apr-04 11:33N 44°41' W 063°38'1 1.4
2014-Apr-04 10:32N 44°41' W 063°37'0 0.0
2014-Apr-04 09:32N 44°41' W 063°37'0 0.0
2014-Apr-04 08:32N 44°41' W 063°37'0 0.0
2014-Apr-04 07:32N 44°41' W 063°37'0 0.0
2014-Apr-04 06:32N 44°41' W 063°37'0 0.0
2014-Apr-04 05:20N 44°41' W 063°37'0 0.0
2014-Apr-04 04:26N 44°41' W 063°37'0 0.0
2014-Apr-04 03:26N 44°41' W 063°37'0 0.0
2014-Apr-04 02:26N 44°41' W 063°37'0 0.0
2014-Apr-04 01:26N 44°41' W 063°37'0 0.0
2014-Apr-04 00:26N 44°41' W 063°37'0 0.0
2014-Apr-03 23:26N 44°41' W 063°37'0 0.0
2014-Apr-03 22:32N 44°41' W 063°37'0 0.0
2014-Apr-03 21:17N 44°41' W 063°37'0 0.0
2014-Apr-03 20:20N 44°41' W 063°37'0 0.0
2014-Apr-03 18:20N 44°41' W 063°37'0 0.0
2014-Apr-03 17:20N 44°41' W 063°37'0 0.0
2014-Apr-03 16:23N 44°41' W 063°37'0 0.0
2014-Apr-03 15:23N 44°41' W 063°37'0 0.0
2014-Apr-03 14:26N 44°41' W 063°37'0 0.0
2014-Apr-03 13:08N 44°41' W 063°37'0 0.0
2014-Apr-03 12:26N 44°41' W 063°37'0 0.0
2014-Apr-03 11:23N 44°41' W 063°37'0 0.0
2014-Apr-03 09:32N 44°41' W 063°37'0 0.0
2014-Apr-03 08:32N 44°41' W 063°37'0 0.0
2014-Apr-03 07:32N 44°41' W 063°37'0 0.0
2014-Apr-03 06:32N 44°41' W 063°37'0 0.0
2014-Apr-03 05:32N 44°41' W 063°37'0 0.0
2014-Apr-03 04:32N 44°41' W 063°37'0 0.0
2014-Apr-03 03:08N 44°41' W 063°37'0 0.0
2014-Apr-03 02:32N 44°41' W 063°37'0 0.0
2014-Apr-03 00:26N 44°41' W 063°37'0 0.0
2014-Apr-02 23:26N 44°41' W 063°37'0 0.0
2014-Apr-02 22:26N 44°41' W 063°37'0 0.0
2014-Apr-02 21:26N 44°41' W 063°37'0 0.0
2014-Apr-02 20:29N 44°41' W 063°37'0 0.0
2014-Apr-02 19:32N 44°41' W 063°37'0 0.0
2014-Apr-02 18:32N 44°41' W 063°37'0 0.0
2014-Apr-02 17:29N 44°41' W 063°37'0 0.0
2014-Apr-02 16:32N 44°41' W 063°37'0 0.0
2014-Apr-02 14:05N 44°41' W 063°37'0 0.0
2014-Apr-02 13:23N 44°41' W 063°37'0 0.0
2014-Apr-02 12:23N 44°41' W 063°37'0 0.0
2014-Apr-02 11:23N 44°41' W 063°37'0 0.0
2014-Apr-02 10:11N 44°41' W 063°37'0 0.0
2014-Apr-02 09:26N 44°41' W 063°37'0 0.0
2014-Apr-02 08:26N 44°41' W 063°37'0 0.0
2014-Apr-02 07:29N 44°41' W 063°37'0 0.0
2014-Apr-02 06:14N 44°41' W 063°37'0 0.0
2014-Apr-02 05:29N 44°41' W 063°37'0 0.0
2014-Apr-02 04:32N 44°41' W 063°37'0 0.0
2014-Apr-02 03:32N 44°41' W 063°37'0 0.0
2014-Apr-02 02:32N 44°41' W 063°37'0 0.0
2014-Apr-02 01:32N 44°41' W 063°37'0 0.0
2014-Apr-02 00:32N 44°41' W 063°37'0 0.0
2014-Apr-01 23:23N 44°41' W 063°37'0 0.0
2014-Apr-01 22:23N 44°41' W 063°37'0 0.0
2014-Apr-01 21:11N 44°41' W 063°37'0 0.0
2014-Apr-01 20:26N 44°41' W 063°37'0 0.0
2014-Apr-01 19:23N 44°41' W 063°37'0 0.0
2014-Apr-01 18:11N 44°41' W 063°37'0 0.0
2014-Apr-01 17:29N 44°41' W 063°37'0 0.0
2014-Apr-01 16:26N 44°41' W 063°37'0 0.0
2014-Apr-01 15:17N 44°41' W 063°37'0 0.0
2014-Apr-01 14:32N 44°41' W 063°37'0 0.0
2014-Apr-01 13:33N 44°41' W 063°37'0 0.0
2014-Apr-01 12:25N 44°41' W 063°37'0 0.0
2014-Apr-01 11:28N 44°41' W 063°37'0 0.0
2014-Apr-01 10:25N 44°41' W 063°37'0 0.0
2014-Apr-01 09:31N 44°41' W 063°37'0 0.0
2014-Apr-01 08:28N 44°41' W 063°37'0 0.0
2014-Apr-01 07:31N 44°41' W 063°37'0 0.0
2014-Apr-01 06:19N 44°41' W 063°37'0 0.0
2014-Apr-01 05:31N 44°41' W 063°37'0 0.0
2014-Apr-01 04:22N 44°41' W 063°37'0 0.0
2014-Apr-01 03:22N 44°41' W 063°37'0 0.0
2014-Apr-01 02:25N 44°41' W 063°37'0 0.0
2014-Apr-01 01:22N 44°41' W 063°37'0 0.0
2014-Apr-01 00:25N 44°41' W 063°37'0 0.0
2014-Mar-31 23:25N 44°41' W 063°37'0 0.0
2014-Mar-31 22:28N 44°41' W 063°37'0 0.0
2014-Mar-31 21:31N 44°41' W 063°37'0 0.0
2014-Mar-31 20:31N 44°41' W 063°37'0 0.0
2014-Mar-31 19:28N 44°41' W 063°37'0 0.0
2014-Mar-31 18:31N 44°41' W 063°37'0 0.0
2014-Mar-31 17:31N 44°41' W 063°37'0 0.0
2014-Mar-31 16:31N 44°41' W 063°37'0 0.0
2014-Mar-31 15:22N 44°41' W 063°37'0 0.0
2014-Mar-31 14:22N 44°41' W 063°37'0 0.0
2014-Mar-31 13:25N 44°41' W 063°37'0 0.0
2014-Mar-31 12:25N 44°41' W 063°37'0 0.0
2014-Mar-31 11:25N 44°41' W 063°37'0 0.0
2014-Mar-31 10:25N 44°41' W 063°37'0 0.0
2014-Mar-31 09:28N 44°41' W 063°37'0 0.0
2014-Mar-31 08:28N 44°41' W 063°37'0 0.0
2014-Mar-31 07:31N 44°41' W 063°37'0 0.0
2014-Mar-31 06:28N 44°41' W 063°37'0 0.0
2014-Mar-31 05:31N 44°41' W 063°37'0 0.0
2014-Mar-31 04:31N 44°41' W 063°37'0 0.0
2014-Mar-31 03:31N 44°41' W 063°37'0 0.0
2014-Mar-31 02:31N 44°41' W 063°37'0 0.0
2014-Mar-31 01:31N 44°41' W 063°37'0 0.0
2014-Mar-31 00:22N 44°41' W 063°37'0 0.0
2014-Mar-30 23:22N 44°41' W 063°37'0 0.0
2014-Mar-30 22:25N 44°41' W 063°37'0 0.0
2014-Mar-30 21:25N 44°41' W 063°37'0 0.0
2014-Mar-30 20:28N 44°41' W 063°37'0 0.0
2014-Mar-30 19:28N 44°41' W 063°37'0 0.0
2014-Mar-30 18:25N 44°41' W 063°37'0 0.0
2014-Mar-30 17:28N 44°41' W 063°37'0 0.0
2014-Mar-30 16:31N 44°41' W 063°37'0 0.0
2014-Mar-30 15:31N 44°41' W 063°37'0 0.0
2014-Mar-30 14:16N 44°41' W 063°37'0 0.0
2014-Mar-30 13:31N 44°41' W 063°37'0 0.0
2014-Mar-30 12:31N 44°41' W 063°37'0 0.0
2014-Mar-30 11:22N 44°41' W 063°37'0 0.0
2014-Mar-30 10:22N 44°41' W 063°37'0 0.0
2014-Mar-30 09:22N 44°41' W 063°37'0 0.0
2014-Mar-30 08:25N 44°41' W 063°37'0 0.0
2014-Mar-30 07:25N 44°41' W 063°37'0 0.0
2014-Mar-30 06:28N 44°41' W 063°37'0 0.0
2014-Mar-30 05:28N 44°41' W 063°37'0 0.0
2014-Mar-30 04:28N 44°41' W 063°37'0 0.0
2014-Mar-30 03:31N 44°41' W 063°37'0 0.0
2014-Mar-30 02:31N 44°41' W 063°37'0 0.0
2014-Mar-30 01:28N 44°41' W 063°37'  

Dump ship's entire track history

sailing weather and tide predictions

Hudson — CGDG — position and weather